sensor_id;sensor_type;location;lat;lon;timestamp;P1;durP1;ratioP1;P2;durP2;ratioP2
74168;SDS011;62523;53.336;83.690;2024-01-15T00:00:20;15.48;;;6.15;;
74168;SDS011;62523;53.336;83.690;2024-01-15T00:05:22;11.65;;;6.55;;
74168;SDS011;62523;53.336;83.690;2024-01-15T00:10:23;11.30;;;6.30;;
74168;SDS011;62523;53.336;83.690;2024-01-15T00:15:25;16.10;;;7.95;;
74168;SDS011;62523;53.336;83.690;2024-01-15T00:20:29;12.30;;;6.73;;
74168;SDS011;62523;53.336;83.690;2024-01-15T00:25:30;17.23;;;7.00;;
74168;SDS011;62523;53.336;83.690;2024-01-15T00:30:32;12.90;;;6.68;;
74168;SDS011;62523;53.336;83.690;2024-01-15T00:35:34;20.20;;;8.47;;
74168;SDS011;62523;53.336;83.690;2024-01-15T00:40:35;15.07;;;8.03;;
74168;SDS011;62523;53.336;83.690;2024-01-15T00:45:37;16.33;;;6.75;;
74168;SDS011;62523;53.336;83.690;2024-01-15T00:50:38;9.33;;;4.57;;
74168;SDS011;62523;53.336;83.690;2024-01-15T00:55:40;20.70;;;9.73;;
74168;SDS011;62523;53.336;83.690;2024-01-15T01:00:41;12.23;;;7.00;;
74168;SDS011;62523;53.336;83.690;2024-01-15T01:05:43;13.93;;;7.05;;
74168;SDS011;62523;53.336;83.690;2024-01-15T01:10:45;11.63;;;6.83;;
74168;SDS011;62523;53.336;83.690;2024-01-15T01:15:47;12.07;;;7.32;;
74168;SDS011;62523;53.336;83.690;2024-01-15T01:20:48;11.13;;;6.33;;
74168;SDS011;62523;53.336;83.690;2024-01-15T01:25:50;9.52;;;5.78;;
74168;SDS011;62523;53.336;83.690;2024-01-15T01:30:51;9.50;;;6.03;;
74168;SDS011;62523;53.336;83.690;2024-01-15T01:35:52;14.38;;;7.13;;
74168;SDS011;62523;53.336;83.690;2024-01-15T01:40:54;14.30;;;7.63;;
74168;SDS011;62523;53.336;83.690;2024-01-15T01:50:58;24.55;;;10.82;;
74168;SDS011;62523;53.336;83.690;2024-01-15T01:56:01;17.60;;;7.93;;
74168;SDS011;62523;53.336;83.690;2024-01-15T02:01:03;18.27;;;8.20;;
74168;SDS011;62523;53.336;83.690;2024-01-15T02:06:05;36.30;;;14.70;;
74168;SDS011;62523;53.336;83.690;2024-01-15T02:16:08;20.20;;;7.97;;
74168;SDS011;62523;53.336;83.690;2024-01-15T02:21:09;12.97;;;6.77;;
74168;SDS011;62523;53.336;83.690;2024-01-15T02:26:11;17.23;;;6.30;;
74168;SDS011;62523;53.336;83.690;2024-01-15T02:31:14;26.00;;;10.03;;
74168;SDS011;62523;53.336;83.690;2024-01-15T02:36:15;27.90;;;13.52;;
74168;SDS011;62523;53.336;83.690;2024-01-15T02:41:17;25.20;;;9.97;;
74168;SDS011;62523;53.336;83.690;2024-01-15T02:46:18;28.58;;;10.00;;
74168;SDS011;62523;53.336;83.690;2024-01-15T02:51:20;26.00;;;11.67;;
74168;SDS011;62523;53.336;83.690;2024-01-15T02:56:21;22.95;;;10.70;;
74168;SDS011;62523;53.336;83.690;2024-01-15T03:01:23;33.10;;;17.33;;
74168;SDS011;62523;53.336;83.690;2024-01-15T03:06:24;28.83;;;12.65;;
74168;SDS011;62523;53.336;83.690;2024-01-15T03:11:26;22.83;;;11.63;;
74168;SDS011;62523;53.336;83.690;2024-01-15T03:16:27;26.80;;;11.47;;
74168;SDS011;62523;53.336;83.690;2024-01-15T03:21:29;20.90;;;10.07;;
74168;SDS011;62523;53.336;83.690;2024-01-15T03:26:30;30.47;;;14.13;;
74168;SDS011;62523;53.336;83.690;2024-01-15T03:31:31;20.27;;;9.13;;
74168;SDS011;62523;53.336;83.690;2024-01-15T03:36:33;15.87;;;9.47;;
74168;SDS011;62523;53.336;83.690;2024-01-15T03:41:35;28.23;;;9.88;;
74168;SDS011;62523;53.336;83.690;2024-01-15T03:46:36;28.17;;;12.80;;
74168;SDS011;62523;53.336;83.690;2024-01-15T03:51:38;23.20;;;11.67;;
74168;SDS011;62523;53.336;83.690;2024-01-15T03:56:39;23.52;;;11.10;;
74168;SDS011;62523;53.336;83.690;2024-01-15T04:01:41;25.93;;;10.67;;
74168;SDS011;62523;53.336;83.690;2024-01-15T04:06:50;23.10;;;9.03;;
74168;SDS011;62523;53.336;83.690;2024-01-15T04:11:52;20.33;;;8.07;;
74168;SDS011;62523;53.336;83.690;2024-01-15T04:16:53;19.23;;;8.67;;
74168;SDS011;62523;53.336;83.690;2024-01-15T04:21:55;23.92;;;8.80;;
74168;SDS011;62523;53.336;83.690;2024-01-15T04:26:56;25.87;;;8.33;;
74168;SDS011;62523;53.336;83.690;2024-01-15T04:31:57;19.50;;;9.93;;
74168;SDS011;62523;53.336;83.690;2024-01-15T04:36:59;20.43;;;11.23;;
74168;SDS011;62523;53.336;83.690;2024-01-15T04:42:00;27.25;;;13.55;;
74168;SDS011;62523;53.336;83.690;2024-01-15T04:52:13;26.85;;;11.38;;
74168;SDS011;62523;53.336;83.690;2024-01-15T04:57:14;21.63;;;8.12;;
74168;SDS011;62523;53.336;83.690;2024-01-15T05:02:15;44.46;;;9.93;;
74168;SDS011;62523;53.336;83.690;2024-01-15T05:07:17;44.03;;;11.57;;
74168;SDS011;62523;53.336;83.690;2024-01-15T05:12:18;25.95;;;11.90;;
74168;SDS011;62523;53.336;83.690;2024-01-15T05:17:20;24.45;;;11.13;;
74168;SDS011;62523;53.336;83.690;2024-01-15T05:22:21;25.77;;;10.18;;
74168;SDS011;62523;53.336;83.690;2024-01-15T05:27:25;25.98;;;11.90;;
74168;SDS011;62523;53.336;83.690;2024-01-15T05:32:28;19.05;;;8.40;;
74168;SDS011;62523;53.336;83.690;2024-01-15T05:37:30;7.90;;;3.47;;
74168;SDS011;62523;53.336;83.690;2024-01-15T05:42:31;11.45;;;4.20;;
74168;SDS011;62523;53.336;83.690;2024-01-15T05:47:33;14.90;;;5.27;;
74168;SDS011;62523;53.336;83.690;2024-01-15T05:52:34;12.90;;;4.47;;
74168;SDS011;62523;53.336;83.690;2024-01-15T05:57:36;11.27;;;4.63;;
74168;SDS011;62523;53.336;83.690;2024-01-15T06:02:38;12.10;;;2.77;;
74168;SDS011;62523;53.336;83.690;2024-01-15T06:07:41;13.13;;;5.77;;
74168;SDS011;62523;53.336;83.690;2024-01-15T06:12:43;7.93;;;2.90;;
74168;SDS011;62523;53.336;83.690;2024-01-15T06:17:45;12.93;;;2.90;;
74168;SDS011;62523;53.336;83.690;2024-01-15T06:22:46;11.80;;;5.30;;
74168;SDS011;62523;53.336;83.690;2024-01-15T06:27:48;15.32;;;6.18;;
74168;SDS011;62523;53.336;83.690;2024-01-15T06:32:49;13.27;;;5.22;;
74168;SDS011;62523;53.336;83.690;2024-01-15T06:37:51;15.65;;;4.38;;
74168;SDS011;62523;53.336;83.690;2024-01-15T06:42:52;4.43;;;2.95;;
74168;SDS011;62523;53.336;83.690;2024-01-15T06:47:54;6.47;;;3.53;;
74168;SDS011;62523;53.336;83.690;2024-01-15T06:52:55;11.70;;;5.15;;
74168;SDS011;62523;53.336;83.690;2024-01-15T07:02:58;12.20;;;6.13;;
74168;SDS011;62523;53.336;83.690;2024-01-15T07:07:59;7.05;;;4.03;;
74168;SDS011;62523;53.336;83.690;2024-01-15T07:13:01;9.85;;;5.03;;
74168;SDS011;62523;53.336;83.690;2024-01-15T07:18:02;9.57;;;5.03;;
74168;SDS011;62523;53.336;83.690;2024-01-15T07:23:04;6.85;;;3.30;;
74168;SDS011;62523;53.336;83.690;2024-01-15T07:28:05;15.84;;;4.44;;
74168;SDS011;62523;53.336;83.690;2024-01-15T07:33:07;17.17;;;6.57;;
74168;SDS011;62523;53.336;83.690;2024-01-15T07:38:08;10.32;;;5.95;;
74168;SDS011;62523;53.336;83.690;2024-01-15T07:43:12;11.43;;;4.30;;
74168;SDS011;62523;53.336;83.690;2024-01-15T07:48:14;9.15;;;4.47;;
74168;SDS011;62523;53.336;83.690;2024-01-15T07:53:15;17.45;;;6.22;;
74168;SDS011;62523;53.336;83.690;2024-01-15T07:58:17;13.27;;;4.93;;
74168;SDS011;62523;53.336;83.690;2024-01-15T08:03:18;7.57;;;3.63;;
74168;SDS011;62523;53.336;83.690;2024-01-15T08:08:20;12.40;;;5.90;;
74168;SDS011;62523;53.336;83.690;2024-01-15T08:18:23;9.38;;;3.92;;
74168;SDS011;62523;53.336;83.690;2024-01-15T08:28:28;14.93;;;3.85;;
74168;SDS011;62523;53.336;83.690;2024-01-15T08:33:31;6.88;;;3.33;;
74168;SDS011;62523;53.336;83.690;2024-01-15T08:43:34;11.30;;;3.97;;
74168;SDS011;62523;53.336;83.690;2024-01-15T08:48:38;15.57;;;3.35;;
74168;SDS011;62523;53.336;83.690;2024-01-15T08:53:40;15.80;;;3.65;;
74168;SDS011;62523;53.336;83.690;2024-01-15T08:58:42;4.55;;;2.08;;
74168;SDS011;62523;53.336;83.690;2024-01-15T09:03:43;6.43;;;2.30;;
74168;SDS011;62523;53.336;83.690;2024-01-15T09:08:48;11.23;;;2.15;;
74168;SDS011;62523;53.336;83.690;2024-01-15T09:13:51;8.25;;;3.08;;
74168;SDS011;62523;53.336;83.690;2024-01-15T09:18:52;8.48;;;2.42;;
74168;SDS011;62523;53.336;83.690;2024-01-15T09:23:58;6.07;;;2.05;;
74168;SDS011;62523;53.336;83.690;2024-01-15T09:34:01;5.00;;;1.63;;
74168;SDS011;62523;53.336;83.690;2024-01-15T09:39:03;6.80;;;2.20;;
74168;SDS011;62523;53.336;83.690;2024-01-15T09:44:05;3.63;;;1.25;;
74168;SDS011;62523;53.336;83.690;2024-01-15T09:49:08;9.00;;;2.70;;
74168;SDS011;62523;53.336;83.690;2024-01-15T09:54:10;7.40;;;1.98;;
74168;SDS011;62523;53.336;83.690;2024-01-15T09:59:17;15.00;;;5.80;;
74168;SDS011;62523;53.336;83.690;2024-01-15T10:04:19;6.20;;;2.03;;
74168;SDS011;62523;53.336;83.690;2024-01-15T10:09:21;8.43;;;3.10;;
74168;SDS011;62523;53.336;83.690;2024-01-15T10:14:23;6.60;;;2.08;;
74168;SDS011;62523;53.336;83.690;2024-01-15T10:19:25;7.38;;;2.83;;
74168;SDS011;62523;53.336;83.690;2024-01-15T10:24:27;13.02;;;3.15;;
74168;SDS011;62523;53.336;83.690;2024-01-15T10:29:31;4.93;;;2.20;;
74168;SDS011;62523;53.336;83.690;2024-01-15T10:34:33;10.48;;;3.72;;
74168;SDS011;62523;53.336;83.690;2024-01-15T10:39:34;6.28;;;2.55;;
74168;SDS011;62523;53.336;83.690;2024-01-15T10:44:36;11.55;;;4.53;;
74168;SDS011;62523;53.336;83.690;2024-01-15T10:49:38;10.63;;;3.90;;
74168;SDS011;62523;53.336;83.690;2024-01-15T10:54:40;7.00;;;2.65;;
74168;SDS011;62523;53.336;83.690;2024-01-15T10:59:44;16.17;;;2.45;;
74168;SDS011;62523;53.336;83.690;2024-01-15T11:09:47;7.50;;;3.17;;
74168;SDS011;62523;53.336;83.690;2024-01-15T11:14:49;12.68;;;3.65;;
74168;SDS011;62523;53.336;83.690;2024-01-15T11:19:51;13.68;;;4.90;;
74168;SDS011;62523;53.336;83.690;2024-01-15T11:24:52;13.00;;;3.10;;
74168;SDS011;62523;53.336;83.690;2024-01-15T11:30:03;10.63;;;3.65;;
74168;SDS011;62523;53.336;83.690;2024-01-15T11:35:05;9.40;;;4.65;;
74168;SDS011;62523;53.336;83.690;2024-01-15T11:40:09;15.23;;;3.45;;
74168;SDS011;62523;53.336;83.690;2024-01-15T11:45:13;13.68;;;7.75;;
74168;SDS011;62523;53.336;83.690;2024-01-15T11:50:19;15.90;;;7.90;;
74168;SDS011;62523;53.336;83.690;2024-01-15T11:55:35;19.95;;;10.07;;
74168;SDS011;62523;53.336;83.690;2024-01-15T12:00:40;8.25;;;3.58;;
74168;SDS011;62523;53.336;83.690;2024-01-15T12:05:43;16.17;;;4.82;;
74168;SDS011;62523;53.336;83.690;2024-01-15T12:10:45;12.83;;;4.33;;
74168;SDS011;62523;53.336;83.690;2024-01-15T12:15:47;10.93;;;4.77;;
74168;SDS011;62523;53.336;83.690;2024-01-15T12:20:49;14.57;;;4.88;;
74168;SDS011;62523;53.336;83.690;2024-01-15T12:25:51;14.13;;;5.55;;
74168;SDS011;62523;53.336;83.690;2024-01-15T12:30:53;9.95;;;3.63;;
74168;SDS011;62523;53.336;83.690;2024-01-15T12:35:56;11.00;;;3.92;;
74168;SDS011;62523;53.336;83.690;2024-01-15T12:40:57;14.23;;;5.25;;
74168;SDS011;62523;53.336;83.690;2024-01-15T12:46:01;10.40;;;4.32;;
74168;SDS011;62523;53.336;83.690;2024-01-15T12:51:05;10.93;;;4.32;;
74168;SDS011;62523;53.336;83.690;2024-01-15T12:56:07;21.92;;;5.80;;
74168;SDS011;62523;53.336;83.690;2024-01-15T13:01:08;12.52;;;5.85;;
74168;SDS011;62523;53.336;83.690;2024-01-15T13:06:11;19.15;;;8.73;;
74168;SDS011;62523;53.336;83.690;2024-01-15T13:16:14;13.57;;;5.75;;
74168;SDS011;62523;53.336;83.690;2024-01-15T13:26:16;13.98;;;5.38;;
74168;SDS011;62523;53.336;83.690;2024-01-15T13:31:20;7.88;;;5.43;;
74168;SDS011;62523;53.336;83.690;2024-01-15T13:41:23;10.13;;;4.15;;
74168;SDS011;62523;53.336;83.690;2024-01-15T13:46:29;9.65;;;5.00;;
74168;SDS011;62523;53.336;83.690;2024-01-15T13:56:32;9.48;;;3.03;;
74168;SDS011;62523;53.336;83.690;2024-01-15T14:01:36;16.23;;;5.03;;
74168;SDS011;62523;53.336;83.690;2024-01-15T14:06:37;14.23;;;5.75;;
74168;SDS011;62523;53.336;83.690;2024-01-15T14:11:40;19.30;;;5.80;;
74168;SDS011;62523;53.336;83.690;2024-01-15T14:16:42;12.90;;;4.40;;
74168;SDS011;62523;53.336;83.690;2024-01-15T14:21:43;8.15;;;3.30;;
74168;SDS011;62523;53.336;83.690;2024-01-15T14:26:45;12.85;;;5.30;;
74168;SDS011;62523;53.336;83.690;2024-01-15T14:36:47;17.83;;;5.45;;
74168;SDS011;62523;53.336;83.690;2024-01-15T14:41:50;17.55;;;6.22;;
74168;SDS011;62523;53.336;83.690;2024-01-15T14:46:53;8.73;;;4.05;;
74168;SDS011;62523;53.336;83.690;2024-01-15T14:51:54;12.07;;;4.57;;
74168;SDS011;62523;53.336;83.690;2024-01-15T14:56:56;17.95;;;5.65;;
74168;SDS011;62523;53.336;83.690;2024-01-15T15:02:11;21.36;;;4.99;;
74168;SDS011;62523;53.336;83.690;2024-01-15T15:07:12;7.90;;;4.60;;
74168;SDS011;62523;53.336;83.690;2024-01-15T15:12:14;21.46;;;5.53;;
74168;SDS011;62523;53.336;83.690;2024-01-15T15:17:15;29.61;;;9.82;;
74168;SDS011;62523;53.336;83.690;2024-01-15T15:22:17;11.80;;;6.80;;
74168;SDS011;62523;53.336;83.690;2024-01-15T15:27:19;10.88;;;4.20;;
74168;SDS011;62523;53.336;83.690;2024-01-15T15:32:21;17.10;;;5.78;;
74168;SDS011;62523;53.336;83.690;2024-01-15T15:37:22;20.58;;;9.60;;
74168;SDS011;62523;53.336;83.690;2024-01-15T15:42:24;11.52;;;4.78;;
74168;SDS011;62523;53.336;83.690;2024-01-15T15:47:26;23.67;;;7.05;;
74168;SDS011;62523;53.336;83.690;2024-01-15T15:52:27;14.50;;;5.45;;
74168;SDS011;62523;53.336;83.690;2024-01-15T15:57:29;10.82;;;3.72;;
74168;SDS011;62523;53.336;83.690;2024-01-15T16:02:32;16.13;;;5.20;;
74168;SDS011;62523;53.336;83.690;2024-01-15T16:07:33;12.50;;;5.10;;
74168;SDS011;62523;53.336;83.690;2024-01-15T16:12:35;14.77;;;7.47;;
74168;SDS011;62523;53.336;83.690;2024-01-15T16:17:36;19.67;;;6.43;;
74168;SDS011;62523;53.336;83.690;2024-01-15T16:22:37;11.80;;;6.17;;
74168;SDS011;62523;53.336;83.690;2024-01-15T16:27:39;20.73;;;6.53;;
74168;SDS011;62523;53.336;83.690;2024-01-15T16:32:41;19.00;;;5.53;;
74168;SDS011;62523;53.336;83.690;2024-01-15T16:37:43;11.23;;;4.90;;
74168;SDS011;62523;53.336;83.690;2024-01-15T16:42:44;9.88;;;4.38;;
74168;SDS011;62523;53.336;83.690;2024-01-15T16:47:46;18.20;;;7.05;;
74168;SDS011;62523;53.336;83.690;2024-01-15T16:52:48;14.10;;;5.10;;
74168;SDS011;62523;53.336;83.690;2024-01-15T16:57:49;13.50;;;5.05;;
74168;SDS011;62523;53.336;83.690;2024-01-15T17:07:52;8.10;;;4.07;;
74168;SDS011;62523;53.336;83.690;2024-01-15T17:12:53;9.32;;;5.22;;
74168;SDS011;62523;53.336;83.690;2024-01-15T17:22:56;18.00;;;6.20;;
74168;SDS011;62523;53.336;83.690;2024-01-15T17:27:58;18.37;;;7.87;;
74168;SDS011;62523;53.336;83.690;2024-01-15T17:33:02;21.53;;;5.77;;
74168;SDS011;62523;53.336;83.690;2024-01-15T17:38:03;54.77;;;24.03;;
74168;SDS011;62523;53.336;83.690;2024-01-15T17:43:05;18.27;;;7.00;;
74168;SDS011;62523;53.336;83.690;2024-01-15T17:48:07;14.90;;;5.33;;
74168;SDS011;62523;53.336;83.690;2024-01-15T17:53:11;10.77;;;3.80;;
74168;SDS011;62523;53.336;83.690;2024-01-15T18:03:14;16.77;;;4.67;;
74168;SDS011;62523;53.336;83.690;2024-01-15T18:13:17;23.53;;;5.83;;
74168;SDS011;62523;53.336;83.690;2024-01-15T18:18:18;16.52;;;5.00;;
74168;SDS011;62523;53.336;83.690;2024-01-15T18:28:21;14.80;;;5.63;;
74168;SDS011;62523;53.336;83.690;2024-01-15T18:33:22;31.13;;;11.13;;
74168;SDS011;62523;53.336;83.690;2024-01-15T18:43:24;22.47;;;9.53;;
74168;SDS011;62523;53.336;83.690;2024-01-15T18:48:26;20.63;;;5.45;;
74168;SDS011;62523;53.336;83.690;2024-01-15T18:58:29;16.17;;;5.67;;
74168;SDS011;62523;53.336;83.690;2024-01-15T19:03:32;11.77;;;4.93;;
74168;SDS011;62523;53.336;83.690;2024-01-15T19:08:34;25.95;;;10.75;;
74168;SDS011;62523;53.336;83.690;2024-01-15T19:13:35;26.17;;;11.03;;
74168;SDS011;62523;53.336;83.690;2024-01-15T19:18:38;21.40;;;10.20;;
74168;SDS011;62523;53.336;83.690;2024-01-15T19:23:39;17.60;;;7.80;;
74168;SDS011;62523;53.336;83.690;2024-01-15T19:28:41;18.27;;;7.05;;
74168;SDS011;62523;53.336;83.690;2024-01-15T19:38:44;23.70;;;9.67;;
74168;SDS011;62523;53.336;83.690;2024-01-15T19:48:47;25.97;;;11.40;;
74168;SDS011;62523;53.336;83.690;2024-01-15T19:53:49;21.90;;;10.50;;
74168;SDS011;62523;53.336;83.690;2024-01-15T19:58:50;22.13;;;10.93;;
74168;SDS011;62523;53.336;83.690;2024-01-15T20:03:51;29.02;;;10.88;;
74168;SDS011;62523;53.336;83.690;2024-01-15T20:08:53;30.10;;;13.18;;
74168;SDS011;62523;53.336;83.690;2024-01-15T20:13:55;24.60;;;9.48;;
74168;SDS011;62523;53.336;83.690;2024-01-15T20:18:56;25.60;;;10.17;;
74168;SDS011;62523;53.336;83.690;2024-01-15T20:23:58;36.60;;;9.30;;
74168;SDS011;62523;53.336;83.690;2024-01-15T20:29:00;29.50;;;9.80;;
74168;SDS011;62523;53.336;83.690;2024-01-15T20:39:02;24.87;;;9.50;;
74168;SDS011;62523;53.336;83.690;2024-01-15T20:44:04;18.50;;;8.13;;
74168;SDS011;62523;53.336;83.690;2024-01-15T20:49:05;19.35;;;9.35;;
74168;SDS011;62523;53.336;83.690;2024-01-15T20:54:07;24.35;;;9.18;;
74168;SDS011;62523;53.336;83.690;2024-01-15T21:04:10;20.70;;;7.80;;
74168;SDS011;62523;53.336;83.690;2024-01-15T21:09:12;23.07;;;10.60;;
74168;SDS011;62523;53.336;83.690;2024-01-15T21:14:14;32.65;;;13.93;;
74168;SDS011;62523;53.336;83.690;2024-01-15T21:19:19;33.00;;;11.20;;
74168;SDS011;62523;53.336;83.690;2024-01-15T21:24:20;25.90;;;12.23;;
74168;SDS011;62523;53.336;83.690;2024-01-15T21:29:28;26.93;;;13.43;;
74168;SDS011;62523;53.336;83.690;2024-01-15T21:34:29;43.55;;;18.42;;
74168;SDS011;62523;53.336;83.690;2024-01-15T21:39:31;38.53;;;15.80;;
74168;SDS011;62523;53.336;83.690;2024-01-15T21:44:33;29.60;;;12.77;;
74168;SDS011;62523;53.336;83.690;2024-01-15T21:54:36;11.27;;;4.67;;
74168;SDS011;62523;53.336;83.690;2024-01-15T21:59:37;20.25;;;7.22;;
74168;SDS011;62523;53.336;83.690;2024-01-15T22:04:38;12.10;;;4.43;;
74168;SDS011;62523;53.336;83.690;2024-01-15T22:09:40;19.13;;;5.18;;
74168;SDS011;62523;53.336;83.690;2024-01-15T22:14:42;12.07;;;5.03;;
74168;SDS011;62523;53.336;83.690;2024-01-15T22:19:43;13.15;;;5.07;;
74168;SDS011;62523;53.336;83.690;2024-01-15T22:24:45;18.42;;;5.53;;
74168;SDS011;62523;53.336;83.690;2024-01-15T22:29:46;18.08;;;6.95;;
74168;SDS011;62523;53.336;83.690;2024-01-15T22:34:51;15.57;;;4.80;;
74168;SDS011;62523;53.336;83.690;2024-01-15T22:39:52;26.40;;;6.78;;
74168;SDS011;62523;53.336;83.690;2024-01-15T22:44:54;15.45;;;5.93;;
74168;SDS011;62523;53.336;83.690;2024-01-15T22:49:56;16.57;;;5.93;;
74168;SDS011;62523;53.336;83.690;2024-01-15T22:54:58;14.45;;;6.45;;
74168;SDS011;62523;53.336;83.690;2024-01-15T22:59:59;17.80;;;6.67;;
74168;SDS011;62523;53.336;83.690;2024-01-15T23:05:01;8.73;;;4.80;;
74168;SDS011;62523;53.336;83.690;2024-01-15T23:10:02;11.30;;;5.40;;
74168;SDS011;62523;53.336;83.690;2024-01-15T23:15:06;17.70;;;7.30;;
74168;SDS011;62523;53.336;83.690;2024-01-15T23:20:09;20.70;;;5.73;;
74168;SDS011;62523;53.336;83.690;2024-01-15T23:25:11;13.67;;;5.43;;
74168;SDS011;62523;53.336;83.690;2024-01-15T23:30:13;22.45;;;8.02;;
74168;SDS011;62523;53.336;83.690;2024-01-15T23:40:16;20.53;;;6.73;;
74168;SDS011;62523;53.336;83.690;2024-01-15T23:45:17;13.73;;;7.03;;
74168;SDS011;62523;53.336;83.690;2024-01-15T23:50:19;19.63;;;9.32;;
74168;SDS011;62523;53.336;83.690;2024-01-15T23:55:20;17.27;;;6.10;;
